Time;durP1;ratioP1;P1;durP2;ratioP2;P2;SDS_P1;SDS_P2;PMS_P1;PMS_P2;Temp;Humidity;BMP_temperature;BMP_pressure;BME280_temperature;BME280_humidity;BME280_pressure;Samples;Min_cycle;Max_cycle;Signal;HPM_P1;HPM_P2
2022/01/11 00:00:50;;;;;;;36.50;18.87;;;;;;;-2.19;69.65;95046.78;1712355;82;21049;-54
2022/01/11 00:03:18;;;;;;;39.27;18.27;;;;;;;-2.23;69.68;95039.77;1692280;83;21144;-53
2022/01/11 00:05:52;;;;;;;30.43;15.38;;;;;;;-2.23;69.85;95041.91;1723883;81;21113;-53
2022/01/11 00:08:14;;;;;;;31.27;16.73;;;;;;;-2.17;69.62;95051.25;1716621;82;21080;-54
2022/01/11 00:10:52;;;;;;;28.75;16.93;;;;;;;-2.15;69.66;95050.31;1691151;83;21069;-54
2022/01/11 00:13:19;;;;;;;31.68;16.32;;;;;;;-2.14;69.43;95053.22;1740710;82;20986;-54
2022/01/11 00:15:47;;;;;;;30.05;16.75;;;;;;;-2.21;69.69;95057.15;1747420;82;21179;-54
2022/01/11 00:18:15;;;;;;;28.90;16.90;;;;;;;-2.15;69.55;95061.67;1740012;82;20955;-54
2022/01/11 00:20:42;;;;;;;31.50;17.67;;;;;;;-2.12;69.60;95066.34;1747548;82;21045;-54
2022/01/11 00:25:39;;;;;;;26.02;14.18;;;;;;;-1.99;69.45;95069.84;1726690;81;21037;-53
2022/01/11 00:28:07;;;;;;;22.95;13.28;;;;;;;-1.98;69.17;95078.13;1728162;82;21167;-53
2022/01/11 00:30:37;;;;;;;21.33;11.73;;;;;;;-1.98;69.02;95076.02;1667298;84;21004;-53
2022/01/11 00:33:09;;;;;;;26.70;13.43;;;;;;;-2.02;69.16;95073.26;1681279;85;21027;-56
2022/01/11 00:35:42;;;;;;;17.70;11.93;;;;;;;-2.01;69.51;95073.47;1730710;82;21000;-54
2022/01/11 00:38:10;;;;;;;21.45;12.15;;;;;;;-1.92;69.21;95072.64;1730224;82;21073;-53
2022/01/11 00:40:38;;;;;;;24.63;14.53;;;;;;;-1.90;68.87;95080.38;1730115;81;21228;-53
2022/01/11 00:43:05;;;;;;;26.10;13.40;;;;;;;-1.95;68.97;95086.08;1721419;80;21577;-53
2022/01/11 00:45:32;;;;;;;18.00;11.63;;;;;;;-1.96;69.02;95089.91;1729651;80;21002;-53
2022/01/11 00:48:00;;;;;;;16.23;10.60;;;;;;;-2.00;68.86;95091.78;1756007;80;21499;-54
2022/01/11 00:50:27;;;;;;;16.57;11.53;;;;;;;-2.09;69.23;95097.41;1725803;80;21201;-54
2022/01/11 00:52:53;;;;;;;17.57;11.65;;;;;;;-2.08;69.33;95093.57;1746478;80;21074;-54
2022/01/11 00:55:20;;;;;;;17.75;12.07;;;;;;;-2.02;69.22;95097.52;1718822;81;21419;-54
2022/01/11 00:57:47;;;;;;;14.28;11.60;;;;;;;-2.00;69.08;95093.89;1689725;83;21065;-54
2022/01/11 01:00:20;;;;;;;18.20;12.93;;;;;;;-1.95;69.05;95093.58;1710602;82;21168;-53
2022/01/11 01:02:46;;;;;;;17.20;10.72;;;;;;;-1.86;68.60;95092.00;1726024;82;27336;-55
2022/01/11 01:05:17;;;;;;;18.30;11.43;;;;;;;-1.85;68.66;95097.04;1726343;81;21087;-54
2022/01/11 01:07:41;;;;;;;16.70;10.88;;;;;;;-1.84;68.07;95102.64;1736405;81;21051;-55
2022/01/11 01:10:21;;;;;;;19.30;12.18;;;;;;;-1.85;68.26;95091.65;1724085;81;21002;-54
2022/01/11 01:12:40;;;;;;;17.95;10.98;;;;;;;-1.82;68.13;95092.27;1736171;80;21404;-53
2022/01/11 01:15:08;;;;;;;16.85;11.05;;;;;;;-1.79;67.61;95091.55;1759063;81;20966;-54
2022/01/11 01:17:37;;;;;;;20.92;12.88;;;;;;;-1.79;67.76;95088.84;1749555;80;20943;-54
2022/01/11 01:20:06;;;;;;;18.57;13.50;;;;;;;-1.73;67.95;95093.59;1778995;80;20931;-53
2022/01/11 01:22:35;;;;;;;21.23;12.58;;;;;;;-1.55;67.63;95083.06;1746330;80;21503;-53
2022/01/11 01:25:01;;;;;;;18.62;12.53;;;;;;;-1.42;67.22;95085.22;1753056;80;21047;-54
2022/01/11 01:27:28;;;;;;;21.90;13.25;;;;;;;-1.39;67.12;95081.00;1762062;80;21037;-53
2022/01/11 01:29:55;;;;;;;25.10;14.07;;;;;;;-1.42;66.98;95084.42;1761188;80;21802;-52
2022/01/11 01:32:25;;;;;;;25.80;13.60;;;;;;;-1.44;66.95;95081.31;1741240;80;21049;-53
2022/01/11 01:34:54;;;;;;;27.87;14.53;;;;;;;-1.52;66.95;95089.11;1761083;80;20934;-54
2022/01/11 01:37:21;;;;;;;22.37;12.95;;;;;;;-1.52;67.30;95089.87;1762652;80;21057;-56
2022/01/11 01:39:50;;;;;;;22.37;14.98;;;;;;;-1.51;67.08;95093.36;1743901;81;21407;-55
2022/01/11 01:42:24;;;;;;;32.35;14.55;;;;;;;-1.53;67.34;95090.25;1725683;81;21167;-54
2022/01/11 01:44:51;;;;;;;18.25;11.40;;;;;;;-1.54;67.08;95098.89;1746217;80;21076;-55
2022/01/11 01:47:17;;;;;;;19.20;13.20;;;;;;;-1.55;67.16;95103.29;1753953;80;21526;-53
2022/01/11 01:49:45;;;;;;;17.10;11.35;;;;;;;-1.61;67.38;95100.14;1759372;80;21013;-54
2022/01/11 01:52:14;;;;;;;19.27;11.63;;;;;;;-1.54;67.46;95098.13;1763644;80;21013;-54
2022/01/11 01:54:43;;;;;;;18.48;12.80;;;;;;;-1.51;67.37;95106.27;1757869;80;21936;-53
2022/01/11 01:57:09;;;;;;;17.27;12.30;;;;;;;-1.42;67.43;95108.70;1720921;81;21019;-55
2022/01/11 01:59:36;;;;;;;17.52;12.47;;;;;;;-1.38;67.41;95108.19;1728872;82;21095;-54
2022/01/11 02:02:09;;;;;;;19.55;13.65;;;;;;;-1.45;67.56;95108.88;1736816;81;20964;-54
2022/01/11 02:04:35;;;;;;;19.80;14.15;;;;;;;-1.50;67.84;95111.09;1739094;81;21000;-54
2022/01/11 02:07:04;;;;;;;23.22;15.20;;;;;;;-1.53;68.01;95111.23;1741602;81;21140;-55
2022/01/11 02:09:31;;;;;;;20.43;13.80;;;;;;;-1.67;68.10;95110.24;1747088;81;21056;-54
2022/01/11 02:11:59;;;;;;;26.05;15.93;;;;;;;-1.73;68.70;95109.00;1740335;81;21531;-53
2022/01/11 02:14:26;;;;;;;32.75;18.52;;;;;;;-1.77;68.83;95115.67;1712109;82;20969;-53
2022/01/11 02:16:56;;;;;;;24.52;15.50;;;;;;;-1.79;69.37;95106.38;1716965;81;21483;-53
2022/01/11 02:19:23;;;;;;;25.60;15.05;;;;;;;-1.75;69.28;95109.34;1747125;82;21192;-54
2022/01/11 02:21:52;;;;;;;25.23;17.00;;;;;;;-1.75;69.38;95115.30;1745390;80;21079;-54
2022/01/11 02:24:19;;;;;;;23.38;16.45;;;;;;;-1.72;69.59;95111.91;1748519;81;21005;-51
2022/01/11 02:26:46;;;;;;;26.05;16.00;;;;;;;-1.60;69.15;95117.09;1737622;82;21092;-53
2022/01/11 02:29:13;;;;;;;24.67;15.18;;;;;;;-1.57;68.79;95109.62;1735043;82;20958;-52
2022/01/11 02:31:40;;;;;;;21.48;15.53;;;;;;;-1.61;68.80;95115.53;1738469;81;22023;-53
2022/01/11 02:34:08;;;;;;;25.57;16.80;;;;;;;-1.68;68.79;95122.94;1738677;81;21527;-55
2022/01/11 02:36:42;;;;;;;25.65;16.95;;;;;;;-1.71;68.54;95122.31;1717264;82;20954;-54
2022/01/11 02:39:16;;;;;;;25.35;17.55;;;;;;;-1.85;68.75;95121.30;1679530;83;20954;-55
2022/01/11 02:41:53;;;;;;;29.85;18.35;;;;;;;-1.86;69.23;95130.53;1682613;84;21509;-55
2022/01/11 02:44:22;;;;;;;27.15;18.17;;;;;;;-1.85;69.08;95129.39;1693426;83;21830;-54
2022/01/11 02:46:50;;;;;;;30.75;18.92;;;;;;;-1.90;69.04;95124.30;1701425;84;21023;-53
2022/01/11 02:49:17;;;;;;;27.67;17.57;;;;;;;-1.91;69.25;95126.00;1700361;84;21590;-54
2022/01/11 02:51:46;;;;;;;28.40;18.90;;;;;;;-1.89;69.15;95143.38;1702300;84;21063;-54
2022/01/11 02:54:13;;;;;;;27.50;17.40;;;;;;;-1.99;69.06;95148.59;1693623;83;20979;-54
2022/01/11 02:56:39;;;;;;;31.77;19.92;;;;;;;-2.03;69.41;95145.82;1701825;84;21134;-54
2022/01/11 02:59:06;;;;;;;32.53;19.42;;;;;;;-2.06;69.56;95150.58;1700895;84;21074;-54
2022/01/11 03:01:33;;;;;;;33.00;19.12;;;;;;;-1.96;69.48;95155.37;1700258;84;20963;-54
2022/01/11 03:04:00;;;;;;;33.13;19.23;;;;;;;-1.91;69.32;95165.09;1690605;83;21032;-55
2022/01/11 03:06:27;;;;;;;32.40;19.92;;;;;;;-1.86;69.09;95153.44;1684006;85;21132;-54
2022/01/11 03:08:54;;;;;;;31.05;19.50;;;;;;;-1.77;68.80;95164.76;1683052;85;21973;-53
2022/01/11 03:11:25;;;;;;;34.48;17.95;;;;;;;-1.70;68.70;95162.20;1732175;81;20941;-53
2022/01/11 03:13:53;;;;;;;33.13;23.02;;;;;;;-1.62;68.42;95168.71;1747193;81;20980;-52
2022/01/11 03:16:19;;;;;;;33.75;18.57;;;;;;;-1.55;68.13;95159.93;1736788;82;21035;-54
2022/01/11 03:18:47;;;;;;;29.12;16.23;;;;;;;-1.48;68.03;95166.81;1730113;81;20975;-54
2022/01/11 03:21:15;;;;;;;29.77;15.72;;;;;;;-1.43;66.95;95161.90;1745262;79;21132;-55
2022/01/11 03:23:42;;;;;;;25.52;14.65;;;;;;;-1.47;66.39;95161.63;1706155;83;21451;-55
2022/01/11 03:26:09;;;;;;;27.22;16.07;;;;;;;-1.50;66.39;95167.74;1746234;81;21494;-54
2022/01/11 03:28:36;;;;;;;25.60;14.73;;;;;;;-1.48;66.61;95164.11;1713658;83;20959;-53
2022/01/11 03:31:03;;;;;;;23.22;15.13;;;;;;;-1.34;66.57;95163.77;1749018;81;20963;-55
2022/01/11 03:33:32;;;;;;;25.50;16.12;;;;;;;-1.27;65.71;95171.20;1749804;81;21085;-54
2022/01/11 03:36:01;;;;;;;22.90;13.65;;;;;;;-1.42;65.15;95178.84;1689272;83;21533;-54
2022/01/11 03:38:30;;;;;;;26.12;15.53;;;;;;;-1.59;65.36;95177.98;1730433;81;21211;-54
2022/01/11 03:40:58;;;;;;;29.70;14.98;;;;;;;-1.68;65.76;95176.11;1687461;83;21073;-56
2022/01/11 03:43:26;;;;;;;29.67;15.15;;;;;;;-1.74;65.93;95178.31;1747550;81;21003;-54
2022/01/11 03:45:53;;;;;;;22.55;14.40;;;;;;;-1.79;65.87;95181.87;1741432;80;21815;-53
2022/01/11 03:48:20;;;;;;;22.98;14.13;;;;;;;-1.79;66.15;95180.52;1775166;80;21049;-55
2022/01/11 03:50:52;;;;;;;25.05;13.10;;;;;;;-1.76;66.15;95183.84;1760397;80;21003;-54
2022/01/11 03:53:17;;;;;;;26.17;14.60;;;;;;;-1.74;66.08;95186.41;1757319;80;21542;-55
2022/01/11 03:58:26;;;;;;;30.97;14.83;;;;;;;-1.66;66.00;95190.00;1766369;80;21214;-54
2022/01/11 04:00:51;;;;;;;33.40;17.05;;;;;;;-1.61;66.04;95193.19;1773172;80;20926;-55
2022/01/11 04:03:19;;;;;;;29.80;15.95;;;;;;;-1.58;65.90;95187.07;1768713;80;21088;-54
2022/01/11 04:05:46;;;;;;;31.80;17.42;;;;;;;-1.53;65.85;95195.45;1752839;80;21123;-54
2022/01/11 04:08:13;;;;;;;26.37;14.60;;;;;;;-1.54;65.37;95189.84;1718898;81;21030;-53
2022/01/11 04:10:39;;;;;;;26.10;15.03;;;;;;;-1.59;65.70;95192.81;1666826;83;21245;-55
2022/01/11 04:13:06;;;;;;;33.48;17.52;;;;;;;-1.64;65.48;95191.77;1719027;82;21833;-54
2022/01/11 04:15:33;;;;;;;21.68;14.43;;;;;;;-1.65;65.72;95192.91;1727474;81;20971;-54
2022/01/11 04:18:00;;;;;;;29.90;15.58;;;;;;;-1.59;65.75;95196.86;1717555;81;21041;-54
2022/01/11 04:20:27;;;;;;;28.55;15.43;;;;;;;-1.57;65.68;95191.87;1713917;82;21034;-53
2022/01/11 04:22:53;;;;;;;28.52;15.65;;;;;;;-1.47;65.88;95195.34;1748588;80;21140;-54
2022/01/11 04:25:21;;;;;;;27.75;15.10;;;;;;;-1.29;65.77;95192.37;1689828;82;21026;-55
2022/01/11 04:27:50;;;;;;;25.48;13.95;;;;;;;-1.10;65.44;95186.89;1690748;83;21001;-55
2022/01/11 04:30:17;;;;;;;83.25;38.20;;;;;;;-1.01;64.18;95192.80;1652308;84;21014;-55
2022/01/11 04:32:44;;;;;;;47.03;23.65;;;;;;;-1.07;64.10;95195.61;1673938;85;21050;-55
2022/01/11 04:35:15;;;;;;;36.53;19.05;;;;;;;-1.05;64.26;95204.91;1650556;84;21128;-54
2022/01/11 04:37:45;;;;;;;24.87;14.47;;;;;;;-1.01;64.17;95200.34;1674056;84;21112;-54
2022/01/11 04:40:13;;;;;;;21.15;13.20;;;;;;;-0.95;64.05;95207.56;1674480;84;21073;-55
2022/01/11 04:42:41;;;;;;;16.97;11.00;;;;;;;-0.98;63.51;95207.70;1707091;82;21188;-55
2022/01/11 04:45:15;;;;;;;16.85;10.53;;;;;;;-1.11;62.94;95202.88;1714014;81;20980;-54
2022/01/11 04:47:38;;;;;;;17.95;10.00;;;;;;;-1.20;63.51;95209.08;1723343;81;21891;-54
2022/01/11 04:50:06;;;;;;;17.57;11.38;;;;;;;-1.25;63.94;95205.34;1742930;82;20964;-55
2022/01/11 04:52:33;;;;;;;18.00;10.98;;;;;;;-1.21;63.99;95200.77;1735802;82;20956;-53
2022/01/11 04:55:00;;;;;;;15.35;9.03;;;;;;;-1.22;63.91;95204.62;1736788;81;21020;-55
2022/01/11 04:57:28;;;;;;;13.45;9.00;;;;;;;-1.19;64.04;95206.59;1712040;83;21066;-54
2022/01/11 04:59:55;;;;;;;38.92;18.48;;;;;;;-1.16;63.81;95200.49;1692572;83;21148;-55
2022/01/11 05:02:22;;;;;;;37.95;16.80;;;;;;;-1.25;63.91;95207.48;1668951;84;21148;-54
2022/01/11 05:04:49;;;;;;;32.13;17.87;;;;;;;-1.31;64.21;95205.45;1685984;84;21044;-53
2022/01/11 05:07:16;;;;;;;28.07;14.47;;;;;;;-1.37;64.58;95199.56;1700218;83;21019;-55
2022/01/11 05:09:43;;;;;;;13.58;9.68;;;;;;;-1.28;64.68;95206.06;1674794;83;21472;-55
2022/01/11 05:12:11;;;;;;;19.90;14.23;;;;;;;-1.33;62.91;95202.33;1675322;83;21973;-54
2022/01/11 05:14:39;;;;;;;16.12;11.40;;;;;;;-1.48;63.88;95208.63;1682265;84;21534;-52
2022/01/11 05:17:06;;;;;;;17.50;11.57;;;;;;;-1.44;64.00;95210.25;1682937;83;20961;-53
2022/01/11 05:19:33;;;;;;;21.62;12.10;;;;;;;-1.38;63.72;95212.05;1701374;83;20954;-54
2022/01/11 05:22:00;;;;;;;27.45;21.20;;;;;;;-1.35;63.67;95219.45;1679841;84;21094;-53
2022/01/11 05:24:28;;;;;;;41.58;22.55;;;;;;;-1.37;63.75;95221.15;1680310;84;21117;-53
2022/01/11 05:26:55;;;;;;;58.15;25.85;;;;;;;-1.30;64.21;95229.94;1717055;82;21176;-55
2022/01/11 05:32:26;;;;;;;24.45;15.25;;;;;;;-1.19;64.32;95226.83;1810109;78;25712;-55
2022/01/11 05:34:53;;;;;;;31.33;17.05;;;;;;;-1.32;63.58;95241.66;1751291;80;21064;-57
2022/01/11 05:37:20;;;;;;;23.95;14.78;;;;;;;-1.48;64.03;95244.45;1741348;81;21818;-53
2022/01/11 05:39:46;;;;;;;22.05;14.00;;;;;;;-1.57;64.72;95242.58;1747296;80;20978;-54
2022/01/11 05:42:14;;;;;;;27.00;17.00;;;;;;;-1.49;64.93;95244.83;1685437;82;21034;-52
2022/01/11 05:44:40;;;;;;;21.48;14.10;;;;;;;-1.47;65.14;95246.02;1754353;80;20967;-57
2022/01/11 05:47:07;;;;;;;25.97;15.03;;;;;;;-1.42;65.34;95247.64;1731230;81;20962;-52
2022/01/11 05:49:36;;;;;;;25.80;15.78;;;;;;;-1.39;65.13;95255.02;1746875;80;21869;-53
2022/01/11 05:52:03;;;;;;;26.10;14.80;;;;;;;-1.35;65.11;95254.53;1713044;80;21045;-52
2022/01/11 05:54:32;;;;;;;29.80;21.73;;;;;;;-1.27;65.17;95257.55;1694715;82;21004;-54
2022/01/11 05:57:00;;;;;;;30.60;17.57;;;;;;;-1.21;64.92;95262.30;1706908;81;21109;-53
2022/01/11 05:59:26;;;;;;;28.27;16.15;;;;;;;-1.13;64.97;95276.11;1703454;82;21216;-54
2022/01/11 06:01:53;;;;;;;24.82;14.78;;;;;;;-0.96;64.97;95268.11;1710913;83;21237;-53
2022/01/11 06:04:20;;;;;;;19.27;13.40;;;;;;;-0.81;64.63;95269.89;1731151;82;21405;-57
2022/01/11 06:06:48;;;;;;;26.73;13.78;;;;;;;-0.68;64.04;95274.73;1712154;83;21034;-58
2022/01/11 06:09:14;;;;;;;19.55;13.32;;;;;;;-0.72;63.99;95274.46;1688185;83;21517;-57
2022/01/11 06:11:41;;;;;;;20.32;13.05;;;;;;;-0.67;64.17;95287.66;1706479;83;21097;-59
2022/01/11 06:14:09;;;;;;;23.20;14.93;;;;;;;-0.66;63.46;95291.35;1678785;84;21176;-58
2022/01/11 06:16:36;;;;;;;19.70;12.70;;;;;;;-0.82;63.51;95295.31;1687127;82;21038;-57
2022/01/11 06:19:05;;;;;;;19.42;13.28;;;;;;;-0.82;63.89;95298.02;1725327;81;21070;-57
2022/01/11 06:21:46;;;;;;;17.32;12.13;;;;;;;-0.81;63.98;95296.31;1709776;82;21501;-57
2022/01/11 06:24:12;;;;;;;20.57;12.85;;;;;;;-0.85;63.72;95310.89;1701640;81;21002;-58
2022/01/11 06:26:41;;;;;;;19.15;12.90;;;;;;;-0.90;63.66;95311.20;1715108;83;21149;-57
2022/01/11 06:29:08;;;;;;;22.73;16.17;;;;;;;-0.94;63.62;95314.42;1686497;84;21030;-59
2022/01/11 06:31:35;;;;;;;19.67;12.15;;;;;;;-0.95;64.10;95316.91;1683701;83;20986;-58
2022/01/11 06:34:03;;;;;;;15.20;10.58;;;;;;;-0.86;64.34;95319.58;1713497;82;21509;-57
2022/01/11 06:36:32;;;;;;;14.43;11.20;;;;;;;-0.82;64.17;95321.77;1690630;83;21046;-57
2022/01/11 06:38:59;;;;;;;14.45;10.55;;;;;;;-0.69;64.07;95317.74;1750721;81;21128;-60
2022/01/11 06:41:27;;;;;;;12.73;10.53;;;;;;;-0.52;63.69;95338.06;1732885;82;21451;-58
2022/01/11 06:43:55;;;;;;;14.43;11.30;;;;;;;-0.51;63.44;95338.27;1736724;81;20951;-61
2022/01/11 06:46:24;;;;;;;37.20;21.90;;;;;;;-0.64;63.03;95336.90;1732176;82;21135;-57
2022/01/11 06:48:52;;;;;;;49.30;31.00;;;;;;;-0.86;63.44;95339.05;1743888;81;21041;-58
2022/01/11 06:51:20;;;;;;;21.68;15.35;;;;;;;-0.98;63.96;95343.29;1686485;82;21138;-61
2022/01/11 06:53:48;;;;;;;47.62;33.80;;;;;;;-1.11;64.23;95341.30;1740144;82;21020;-59
2022/01/11 06:56:17;;;;;;;23.38;14.60;;;;;;;-1.21;64.49;95343.25;1701096;82;21541;-60
2022/01/11 06:58:45;;;;;;;16.55;12.25;;;;;;;-1.30;65.31;95347.32;1717818;81;21028;-60
2022/01/11 07:01:13;;;;;;;25.20;15.08;;;;;;;-1.23;65.75;95353.63;1714134;81;21047;-59
2022/01/11 07:03:40;;;;;;;26.25;15.83;;;;;;;-1.09;65.93;95357.16;1696328;81;21123;-59
2022/01/11 07:06:25;;;;;;;34.20;21.12;;;;;;;-0.90;65.75;95357.11;1722921;81;21022;-61
2022/01/11 07:08:53;;;;;;;57.20;39.05;;;;;;;-0.78;65.38;95356.94;1706086;82;21080;-66
2022/01/11 07:11:23;;;;;;;28.25;18.37;;;;;;;-0.68;64.75;95361.17;1731140;80;21105;-59
2022/01/11 07:13:50;;;;;;;32.08;22.22;;;;;;;-0.68;64.52;95365.78;1700613;81;21027;-61
2022/01/11 07:16:17;;;;;;;19.52;14.53;;;;;;;-0.72;64.90;95371.70;1728615;80;21789;-65
2022/01/11 07:18:44;;;;;;;18.75;13.22;;;;;;;-0.63;63.87;95361.45;1728703;79;21049;-66
2022/01/11 07:21:11;;;;;;;17.95;12.50;;;;;;;-0.65;63.67;95374.51;1705861;81;22334;-60
2022/01/11 07:23:38;;;;;;;23.45;15.68;;;;;;;-0.74;64.04;95373.98;1741326;81;21030;-57
2022/01/11 07:26:07;;;;;;;11.28;9.83;;;;;;;-0.68;64.07;95382.78;1750360;80;21810;-59
2022/01/11 07:28:36;;;;;;;12.65;10.45;;;;;;;-0.64;63.77;95378.21;1687388;81;21167;-63
2022/01/11 07:31:05;;;;;;;18.50;12.05;;;;;;;-0.56;63.58;95387.22;1722586;80;21191;-63
2022/01/11 07:33:34;;;;;;;11.45;9.85;;;;;;;-0.46;63.31;95391.45;1735802;80;21069;-60
2022/01/11 07:36:01;;;;;;;9.30;8.40;;;;;;;-0.48;62.93;95394.29;1711932;81;21246;-61
2022/01/11 07:38:29;;;;;;;11.48;9.65;;;;;;;-0.55;62.67;95392.83;1724277;80;21014;-59
2022/01/11 07:40:56;;;;;;;11.93;9.33;;;;;;;-0.59;63.12;95389.30;1732244;80;21284;-57
2022/01/11 07:43:27;;;;;;;15.25;10.63;;;;;;;-0.57;63.23;95387.02;1733202;81;21672;-59
2022/01/11 07:45:56;;;;;;;17.37;12.00;;;;;;;-0.53;63.05;95387.84;1712403;82;21044;-68
2022/01/11 07:48:25;;;;;;;10.80;8.85;;;;;;;-0.58;63.27;95393.55;1713050;81;21079;-60
2022/01/11 07:50:54;;;;;;;13.28;9.00;;;;;;;-0.62;63.35;95398.13;1719608;80;21057;-62
2022/01/11 07:53:21;;;;;;;11.65;9.50;;;;;;;-0.61;63.24;95394.28;1721030;80;21301;-59
2022/01/11 07:55:49;;;;;;;21.17;11.43;;;;;;;-0.59;63.15;95392.00;1672165;81;20963;-62
2022/01/11 07:58:16;;;;;;;21.20;13.38;;;;;;;-0.63;63.27;95392.52;1705821;80;21092;-57
2022/01/11 08:00:44;;;;;;;28.95;20.05;;;;;;;-0.64;63.59;95402.52;1735736;80;20986;-61
2022/01/11 08:03:13;;;;;;;23.18;16.80;;;;;;;-0.62;63.13;95408.93;1736734;80;21172;-61
2022/01/11 08:05:44;;;;;;;20.30;13.08;;;;;;;-0.58;62.64;95401.66;1734867;80;21315;-63
2022/01/11 08:08:12;;;;;;;17.60;12.13;;;;;;;-0.61;62.45;95411.84;1699659;82;21004;-62
2022/01/11 08:10:40;;;;;;;15.20;10.98;;;;;;;-0.67;62.78;95403.80;1718134;81;21103;-65
2022/01/11 08:13:09;;;;;;;20.88;13.35;;;;;;;-0.69;63.08;95415.55;1713597;81;21069;-60
2022/01/11 08:15:35;;;;;;;24.77;16.20;;;;;;;-0.74;62.86;95409.86;1711384;81;21064;-61
2022/01/11 08:18:05;;;;;;;14.10;10.95;;;;;;;-0.87;62.56;95416.59;1703905;81;21118;-61
2022/01/11 08:20:34;;;;;;;51.28;42.27;;;;;;;-0.92;62.54;95403.36;1726044;80;21013;-63
2022/01/11 08:23:02;;;;;;;20.32;16.80;;;;;;;-0.93;62.93;95415.30;1733975;80;21121;-58
2022/01/11 08:25:30;;;;;;;14.35;11.55;;;;;;;-0.91;62.58;95414.95;1718555;81;21132;-69
2022/01/11 08:27:59;;;;;;;19.42;12.25;;;;;;;-0.89;62.29;95401.88;1713861;82;21216;-61
2022/01/11 08:30:27;;;;;;;27.07;18.60;;;;;;;-0.86;62.58;95412.75;1736875;80;21476;-65
2022/01/11 08:32:55;;;;;;;21.73;13.38;;;;;;;-0.80;63.08;95407.84;1752396;80;21112;-61
2022/01/11 08:35:24;;;;;;;21.77;15.03;;;;;;;-0.66;62.58;95410.77;1691336;81;21097;-66
2022/01/11 08:37:52;;;;;;;20.02;12.93;;;;;;;-0.49;62.29;95413.00;1723746;81;21050;-61
2022/01/11 08:40:19;;;;;;;19.30;13.03;;;;;;;-0.51;61.80;95408.52;1713578;81;20985;-59
2022/01/11 08:42:46;;;;;;;20.20;11.88;;;;;;;-0.43;61.70;95404.23;1693751;80;21545;-67
2022/01/11 08:45:14;;;;;;;18.55;13.20;;;;;;;-0.34;61.52;95413.44;1726989;80;21048;-60
2022/01/11 08:47:42;;;;;;;32.88;17.62;;;;;;;-0.32;61.47;95412.51;1732635;80;21120;-58
2022/01/11 08:50:11;;;;;;;17.57;11.90;;;;;;;-0.32;61.60;95412.51;1725581;81;21049;-63
2022/01/11 08:52:41;;;;;;;31.57;17.23;;;;;;;-0.39;61.48;95405.65;1730907;80;21019;-61
2022/01/11 08:55:11;;;;;;;27.00;15.88;;;;;;;-0.48;61.52;95414.55;1700572;80;21534;-62
2022/01/11 08:57:39;;;;;;;20.08;13.38;;;;;;;-0.46;61.21;95410.91;1715522;81;21128;-64
2022/01/11 09:00:16;;;;;;;19.42;13.18;;;;;;;-0.49;61.75;95410.29;1713868;80;20997;-63
2022/01/11 09:02:40;;;;;;;17.60;13.60;;;;;;;-0.43;62.18;95420.44;1708256;81;21099;-61
2022/01/11 09:05:08;;;;;;;16.27;11.40;;;;;;;-0.52;61.68;95417.77;1697372;82;21097;-62
2022/01/11 09:07:36;;;;;;;16.80;11.60;;;;;;;-0.68;62.04;95426.56;1621888;85;21178;-59
2022/01/11 09:10:07;;;;;;;20.65;13.38;;;;;;;-0.68;62.72;95415.20;1665781;83;21094;-61
2022/01/11 09:12:35;;;;;;;17.57;11.65;;;;;;;-0.60;62.94;95414.75;1671471;83;21141;-62
2022/01/11 09:15:06;;;;;;;28.70;19.90;;;;;;;-0.62;62.61;95414.33;1696691;83;21069;-66
2022/01/11 09:17:36;;;;;;;28.35;15.72;;;;;;;-0.69;62.59;95410.14;1721730;80;21537;-70
2022/01/11 09:20:06;;;;;;;19.23;13.40;;;;;;;-0.75;62.97;95410.23;1698573;80;21112;-64
2022/01/11 09:22:34;;;;;;;20.20;12.93;;;;;;;-0.79;63.32;95415.56;1731972;81;21066;-66
2022/01/11 09:25:03;;;;;;;14.68;11.08;;;;;;;-0.74;63.02;95416.61;1713270;80;21050;-64
2022/01/11 09:27:31;;;;;;;15.35;10.90;;;;;;;-0.71;63.24;95417.27;1728790;80;21121;-63
2022/01/11 09:30:02;;;;;;;81.92;61.13;;;;;;;-0.66;63.09;95418.88;1729746;80;21006;-61
2022/01/11 09:32:34;;;;;;;53.65;37.93;;;;;;;-0.58;62.93;95415.17;1694958;81;21162;-63
2022/01/11 09:35:06;;;;;;;20.30;14.17;;;;;;;-0.61;61.52;95418.59;1730282;80;21386;-63
2022/01/11 09:37:37;;;;;;;17.98;10.95;;;;;;;-0.78;61.94;95410.95;1689187;82;21002;-68
2022/01/11 09:40:11;;;;;;;19.82;13.55;;;;;;;-0.82;62.15;95405.48;1689047;82;21026;-63
2022/01/11 09:42:38;;;;;;;19.00;13.77;;;;;;;-0.80;62.12;95397.80;1713318;81;21826;-62
2022/01/11 09:45:09;;;;;;;15.43;10.60;;;;;;;-0.80;62.14;95405.14;1713968;81;22825;-64
2022/01/11 09:47:39;;;;;;;14.07;11.57;;;;;;;-0.70;62.34;95396.42;1716119;80;21070;-64
2022/01/11 09:50:10;;;;;;;22.07;15.20;;;;;;;-0.55;62.11;95396.30;1699472;81;21018;-64
2022/01/11 09:52:39;;;;;;;16.65;10.80;;;;;;;-0.42;61.61;95396.92;1709149;80;21493;-62
2022/01/11 09:55:07;;;;;;;15.48;11.15;;;;;;;-0.31;61.40;95395.94;1677993;82;21093;-71
2022/01/11 09:57:34;;;;;;;18.05;11.40;;;;;;;-0.25;60.91;95404.53;1679683;84;21421;-65
2022/01/11 10:00:06;;;;;;;18.40;11.83;;;;;;;-0.26;60.75;95400.27;1635611;82;21004;-63
2022/01/11 10:02:47;;;;;;;14.80;11.28;;;;;;;-0.33;60.10;95400.14;1678850;83;21078;-63
2022/01/11 10:05:23;;;;;;;19.02;11.65;;;;;;;-0.39;60.20;95399.66;1641189;84;21074;-67
2022/01/11 10:07:55;;;;;;;;;;;;;;;-0.47;60.34;95404.75;1660914;83;22190;-62
2022/01/11 10:10:25;;;;;;;13.40;10.32;;;;;;;-0.44;60.09;95404.61;1687098;83;21133;-62
2022/01/11 10:13:03;;;;;;;19.77;11.70;;;;;;;-0.52;59.85;95400.21;1688994;83;20918;-60
2022/01/11 10:15:35;;;;;;;14.70;10.75;;;;;;;-0.52;60.30;95395.60;1677850;83;21132;-63
2022/01/11 10:18:06;;;;;;;13.68;10.30;;;;;;;-0.46;60.01;95402.81;1686397;83;21101;-61
2022/01/11 10:20:35;;;;;;;18.20;10.78;;;;;;;-0.48;59.93;95390.23;1697505;82;21026;-69
2022/01/11 10:23:13;;;;;;;17.90;11.40;;;;;;;-0.49;59.69;95397.58;1656915;84;21536;-62
2022/01/11 10:25:49;;;;;;;21.30;11.12;;;;;;;-0.44;59.76;95398.62;1646151;85;21465;-60
2022/01/11 10:28:17;;;;;;;13.60;9.43;;;;;;;-0.40;59.62;95401.39;1705535;81;21091;-65
2022/01/11 10:30:52;;;;;;;14.20;10.28;;;;;;;-0.34;59.40;95395.88;1736142;80;21026;-72
2022/01/11 10:33:19;;;;;;;25.48;17.60;;;;;;;-0.19;58.97;95400.37;1714750;81;21133;-65
2022/01/11 10:35:48;;;;;;;17.23;11.20;;;;;;;-0.12;58.41;95405.87;1719014;81;21767;-63
2022/01/11 10:38:27;;;;;;;15.13;12.85;;;;;;;-0.07;57.88;95394.77;1654412;81;21111;-68
2022/01/11 10:40:54;;;;;;;15.38;10.75;;;;;;;0.05;57.39;95398.05;1731669;80;21730;-72
2022/01/11 10:43:22;;;;;;;27.75;16.60;;;;;;;0.24;57.65;95390.58;1727392;80;21063;-64
2022/01/11 10:45:52;;;;;;;48.80;34.35;;;;;;;0.44;57.64;95397.42;1725520;80;22150;-63
2022/01/11 10:48:23;;;;;;;19.17;15.28;;;;;;;0.65;57.31;95394.22;1731630;80;21330;-67
2022/01/11 10:50:59;;;;;;;15.45;11.57;;;;;;;0.78;56.93;95403.66;1732637;80;21140;-61
2022/01/11 10:53:32;;;;;;;16.30;11.65;;;;;;;0.70;55.41;95396.03;1729980;81;21154;-67
2022/01/11 10:56:02;;;;;;;13.75;11.40;;;;;;;0.48;55.15;95405.03;1736378;79;21102;-63
2022/01/11 10:58:33;;;;;;;16.10;10.50;;;;;;;0.43;55.86;95403.22;1737930;81;21065;-59
2022/01/11 11:00:59;;;;;;;12.15;9.83;;;;;;;0.51;56.15;95402.94;1709367;80;21205;-60
2022/01/11 11:03:29;;;;;;;14.95;11.80;;;;;;;0.57;55.76;95404.17;1710394;81;21057;-65
2022/01/11 11:05:59;;;;;;;15.55;11.05;;;;;;;0.65;56.31;95409.90;1722800;81;21124;-64
2022/01/11 11:08:31;;;;;;;18.62;13.10;;;;;;;0.85;55.65;95401.83;1702541;82;21581;-60
2022/01/11 11:11:02;;;;;;;18.20;10.43;;;;;;;0.87;55.29;95405.50;1713016;80;21052;-64
2022/01/11 11:13:36;;;;;;;20.92;12.50;;;;;;;0.84;55.25;95401.62;1701131;82;22432;-59
2022/01/11 11:16:21;;;;;;;17.65;11.88;;;;;;;0.76;54.93;95404.02;1738279;81;21075;-61
2022/01/11 11:18:57;;;;;;;14.20;9.60;;;;;;;0.65;55.01;95405.84;1700595;82;20983;-64
2022/01/11 11:21:32;;;;;;;17.20;12.63;;;;;;;0.61;55.08;95400.93;1731675;81;21061;-69
2022/01/11 11:24:10;;;;;;;13.58;9.38;;;;;;;0.67;55.34;95397.33;1703285;81;21157;-68
2022/01/11 11:26:44;;;;;;;13.03;9.78;;;;;;;0.72;54.63;95396.44;1734579;81;21987;-62
2022/01/11 11:29:11;;;;;;;13.48;10.23;;;;;;;0.50;54.45;95401.38;1731947;81;21125;-65
2022/01/11 11:31:39;;;;;;;16.93;11.03;;;;;;;0.39;54.85;95399.09;1734588;81;21057;-59
2022/01/11 11:34:08;;;;;;;12.85;9.88;;;;;;;0.35;55.25;95393.42;1722495;82;21243;-62